Brezno, Slovakia
Current Conditions -  °F | °C
As of 2:00 PM on Sunday 21 Dec 2014 (Local Time) from LZSL Reporting Station
Few Clouds Few Clouds  
Wind Chill: 35°   Ceiling: Unl
Heat Index: 43°   Visibility: 6mi
Dew Point: 28°   Wind: 15mph
Humidity: 57%   Direction: 330°NNW
Pressure: 30.18"   Gusts: NA
Location:  48.81°N, 19.64°E
Report Text: LZSL 211200Z 33013KT 280V010 9999 FEW031 06/M02 Q1022
Loading
Personal Weather Stations






























Interactive Weather Map New forecast layout! Learn more

10-Day Weather Forecast

Advertisements
Track Severe Weather on mobile